createdAt,value
2023-03-30T06:16:20.555Z,100.00
2023-03-30T06:27:03.791Z,100.00
2023-03-30T06:29:31.522Z,100.00
2023-03-30T06:31:59.262Z,100.00
2023-03-30T06:34:26.661Z,97.73
2023-03-30T06:36:54.046Z,94.88
2023-03-30T06:39:22.796Z,91.47
2023-03-30T06:41:50.155Z,89.22
2023-03-30T06:44:18.002Z,88.50
2023-03-30T06:46:45.373Z,86.36
2023-03-30T06:49:13.248Z,85.54
2023-03-30T06:51:42.045Z,85.11
2023-03-30T06:54:09.582Z,84.13
2023-03-30T06:56:36.966Z,83.03
2023-03-30T06:59:05.533Z,82.42
2023-03-30T07:01:33.662Z,81.72
2023-03-30T07:04:01.119Z,80.06
2023-03-30T07:06:28.532Z,80.47
2023-03-30T07:08:56.050Z,79.96
2023-03-30T07:11:23.605Z,79.33
2023-03-30T07:13:51.087Z,79.02
2023-03-30T07:16:18.543Z,78.41
2023-03-30T07:18:46.016Z,78.46
2023-03-30T07:21:14.347Z,77.90
2023-03-30T07:23:43.461Z,77.43
2023-03-30T07:26:12.120Z,76.99
2023-03-30T07:28:40.497Z,76.63
2023-03-30T07:31:13.880Z,75.67
2023-03-30T07:33:42.058Z,73.76
2023-03-30T07:36:10.232Z,73.27
2023-03-30T07:38:37.981Z,73.70
2023-03-30T07:41:13.261Z,73.71
2023-03-30T07:43:41.465Z,74.64
2023-03-30T07:46:12.535Z,73.48
2023-03-30T07:48:41.465Z,73.38
2023-03-30T07:51:14.001Z,75.78
2023-03-30T07:53:42.178Z,75.65
2023-03-30T07:56:10.582Z,75.04
2023-03-30T07:58:39.232Z,75.73
2023-03-30T08:01:06.919Z,76.07
2023-03-30T08:03:34.950Z,76.95
2023-03-30T08:06:05.606Z,76.05
2023-03-30T08:08:35.058Z,75.55
2023-03-30T08:11:02.820Z,76.07
2023-03-30T08:13:31.808Z,74.80
2023-03-30T08:15:59.405Z,75.57
2023-03-30T08:18:29.050Z,75.67
2023-03-30T08:20:56.888Z,75.80
2023-03-30T08:23:25.135Z,75.89
2023-03-30T08:25:56.101Z,76.96
2023-03-30T08:28:23.576Z,78.53
2023-03-30T08:30:51.356Z,77.91
2023-03-30T08:33:19.228Z,79.30
2023-03-30T08:35:48.139Z,89.94
2023-03-30T08:38:19.398Z,99.00
2023-03-30T08:40:51.047Z,100.00
2023-03-30T08:44:02.705Z,100.00
2023-03-30T08:46:30.974Z,100.00
2023-03-30T08:49:18.818Z,100.00
2023-03-30T08:51:50.018Z,100.00
2023-03-30T08:54:22.053Z,100.00
2023-03-30T08:58:02.879Z,100.00
2023-03-30T09:00:59.097Z,100.00
2023-03-30T09:03:52.079Z,100.00
2023-03-30T09:06:47.109Z,100.00
2023-03-30T09:09:24.931Z,100.00
2023-03-30T09:12:34.356Z,100.00
2023-03-30T09:15:52.423Z,100.00
2023-03-30T09:18:31.885Z,100.00
2023-03-30T09:21:11.084Z,100.00
2023-03-30T09:23:40.059Z,100.00
2023-03-30T09:27:04.572Z,100.00
2023-03-30T09:29:53.461Z,100.00
2023-03-30T09:32:38.050Z,100.00
2023-03-30T09:35:24.997Z,100.00
2023-03-30T09:37:52.448Z,100.00
2023-03-30T09:41:35.300Z,100.00
2023-03-30T09:44:03.046Z,100.00
2023-03-30T09:46:31.078Z,100.00
2023-03-30T09:49:17.369Z,100.00
2023-03-30T09:52:08.504Z,100.00
2023-03-30T09:54:41.793Z,100.00
2023-03-30T09:57:32.983Z,100.00
2023-03-30T10:00:21.809Z,100.00
2023-03-30T10:03:03.722Z,100.00
2023-03-30T10:05:37.958Z,100.00
2023-03-30T10:08:22.934Z,100.00
2023-03-30T10:10:58.479Z,100.00
2023-03-30T10:13:42.245Z,100.00
2023-03-30T10:16:33.429Z,100.00
2023-03-30T10:19:16.831Z,100.00
2023-03-30T10:21:47.073Z,100.00
2023-03-30T10:24:14.413Z,100.00
2023-03-30T10:26:47.427Z,100.00
2023-03-30T10:29:22.903Z,100.00
2023-03-30T10:32:16.284Z,100.00
2023-03-30T10:35:01.976Z,100.00
2023-03-30T10:37:42.940Z,100.00
2023-03-30T10:40:40.966Z,100.00
2023-03-30T10:43:32.999Z,100.00
2023-03-30T10:46:30.382Z,100.00
2023-03-30T10:49:54.242Z,100.00
2023-03-30T10:53:03.876Z,100.00
2023-03-30T10:56:22.064Z,100.00
2023-03-30T10:59:49.523Z,100.00
2023-03-30T11:03:03.791Z,100.00
2023-03-30T11:05:46.285Z,100.00
2023-03-30T11:08:38.286Z,100.00
2023-03-30T11:11:07.299Z,100.00
2023-03-30T11:13:43.975Z,100.00
2023-03-30T11:16:31.608Z,100.00
2023-03-30T11:19:39.978Z,100.00
2023-03-30T11:22:47.418Z,100.00
2023-03-30T11:25:29.851Z,100.00
2023-03-30T11:29:17.192Z,100.00
2023-03-30T11:32:17.453Z,100.00
2023-03-30T11:35:31.767Z,100.00
2023-03-30T11:38:23.543Z,100.00
2023-03-30T11:41:33.898Z,100.00
2023-03-30T11:44:01.857Z,100.00
2023-03-30T11:47:14.794Z,100.00
2023-03-30T11:50:30.282Z,100.00
2023-03-30T11:53:45.922Z,100.00
2023-03-30T11:57:00.543Z,100.00
2023-03-30T12:00:41.116Z,100.00
2023-03-30T12:03:45.188Z,100.00
2023-03-30T12:07:00.663Z,100.00
2023-03-30T12:09:54.608Z,100.00
2023-03-30T12:12:39.369Z,100.00
2023-03-30T12:15:16.044Z,100.00
2023-03-30T12:18:02.990Z,100.00
2023-03-30T12:21:16.672Z,100.00
2023-03-30T12:23:54.678Z,100.00
2023-03-30T12:26:34.361Z,100.00
2023-03-30T12:29:48.096Z,98.95
2023-03-30T12:32:03.304Z,91.13
2023-03-30T12:34:41.652Z,85.75
2023-03-30T12:37:38.218Z,82.55
2023-03-30T12:40:26.211Z,76.80
2023-03-30T12:43:24.104Z,71.86
2023-03-30T12:46:45.323Z,69.44
2023-03-30T12:50:04.401Z,70.53
2023-03-30T12:53:32.284Z,70.65
2023-03-30T12:56:22.624Z,72.86
2023-03-30T12:59:42.963Z,70.28
2023-03-30T13:03:12.443Z,69.76
2023-03-30T13:05:45.041Z,69.53
2023-03-30T13:08:38.415Z,71.09
2023-03-30T13:11:22.798Z,68.39
2023-03-30T13:14:11.320Z,66.45
2023-03-30T13:17:20.502Z,63.29
2023-03-30T13:20:29.224Z,61.15
2023-03-30T13:23:32.432Z,59.26
2023-03-30T13:26:34.616Z,56.94
2023-03-30T13:29:17.236Z,56.22
2023-03-30T13:32:41.450Z,54.06
2023-03-30T13:36:04.528Z,52.83
2023-03-30T13:40:01.434Z,51.54
2023-03-30T13:43:20.126Z,50.98
2023-03-30T13:46:45.206Z,48.65
2023-03-30T13:49:58.071Z,50.32
2023-03-30T13:52:41.345Z,49.21
2023-03-30T13:55:37.282Z,48.04
2023-03-30T13:58:30.837Z,46.55
2023-03-30T14:01:10.711Z,45.78
2023-03-30T14:04:00.942Z,45.33
2023-03-30T14:06:34.550Z,45.05
2023-03-30T14:09:07.698Z,44.96
2023-03-30T14:11:45.605Z,44.20
2023-03-30T14:14:47.398Z,44.44
2023-03-30T14:17:22.700Z,43.24
2023-03-30T14:20:45.628Z,43.53
2023-03-30T14:23:32.513Z,42.43
2023-03-30T14:26:18.575Z,42.49
2023-03-30T14:28:46.972Z,40.99
2023-03-30T14:31:22.328Z,41.56
2023-03-30T14:33:50.104Z,41.25
2023-03-30T14:36:20.691Z,41.72
2023-03-30T14:38:53.956Z,41.87
2023-03-30T14:41:28.407Z,41.86
2023-03-30T14:44:07.550Z,42.75
2023-03-30T14:46:50.067Z,42.11
2023-03-30T14:49:32.706Z,41.72
2023-03-30T14:52:27.526Z,41.77
2023-03-30T14:55:05.097Z,40.55
2023-03-30T14:57:40.537Z,40.26
2023-03-30T15:00:23.001Z,40.44
2023-03-30T15:03:01.651Z,41.40
2023-03-30T15:05:43.004Z,41.69
2023-03-30T15:08:27.930Z,41.48
2023-03-30T15:11:21.617Z,41.04
2023-03-30T15:14:03.990Z,40.91
2023-03-30T15:16:34.063Z,41.37
2023-03-30T15:19:24.512Z,42.00
2023-03-30T15:21:54.712Z,41.71
2023-03-30T15:24:32.361Z,42.83
2023-03-30T15:27:06.789Z,43.58
2023-03-30T15:29:34.655Z,44.06
2023-03-30T15:32:26.082Z,44.61
2023-03-30T15:35:16.019Z,44.87
2023-03-30T15:38:04.361Z,44.71
2023-03-30T15:40:39.129Z,45.61
2023-03-30T15:43:21.558Z,46.53
2023-03-30T15:46:04.626Z,47.26
2023-03-30T15:48:45.960Z,47.66
2023-03-30T15:51:43.636Z,48.14
2023-03-30T15:54:22.674Z,48.97
2023-03-30T15:57:18.099Z,49.02
2023-03-30T15:59:51.244Z,49.37
2023-03-30T16:02:40.426Z,48.68
2023-03-30T16:05:22.841Z,48.86
2023-03-30T16:07:50.717Z,48.21
2023-03-30T16:10:28.275Z,47.91
2023-03-30T16:12:58.443Z,47.35
2023-03-30T16:15:37.891Z,46.48
2023-03-30T16:18:13.346Z,45.80
2023-03-30T16:20:40.870Z,46.31
2023-03-30T16:23:09.335Z,47.19
2023-03-30T16:25:44.692Z,47.57
2023-03-30T16:28:21.859Z,47.04
2023-03-30T16:30:55.529Z,46.42
2023-03-30T16:33:24.520Z,46.10
2023-03-30T16:35:52.145Z,46.49
2023-03-30T16:38:19.834Z,46.73
2023-03-30T16:40:58.662Z,48.29
2023-03-30T16:43:27.388Z,50.16
2023-03-30T16:45:55.119Z,49.66
2023-03-30T16:48:24.365Z,49.26
2023-03-30T16:50:57.140Z,49.21
2023-03-30T16:53:24.942Z,48.84
2023-03-30T16:55:52.360Z,49.05
2023-03-30T16:58:19.761Z,49.16
2023-03-30T17:00:53.247Z,49.38
2023-03-30T17:03:20.970Z,49.19
2023-03-30T17:05:49.071Z,50.07
2023-03-30T17:08:27.595Z,50.15
2023-03-30T17:11:05.226Z,50.95
2023-03-30T17:13:32.969Z,51.01
2023-03-30T17:16:02.953Z,51.81
2023-03-30T17:18:32.108Z,51.69
2023-03-30T17:21:03.207Z,51.91
2023-03-30T17:23:33.124Z,51.76
2023-03-30T17:26:02.556Z,52.27
2023-03-30T17:28:35.617Z,52.81
2023-03-30T17:31:12.174Z,52.38
2023-03-30T17:33:39.968Z,51.72
2023-03-30T17:36:23.237Z,52.09
2023-03-30T17:38:51.923Z,51.92
2023-03-30T17:41:20.795Z,51.68
2023-03-30T17:43:49.079Z,52.04
2023-03-30T17:46:19.775Z,53.04
2023-03-30T17:48:47.682Z,53.07
2023-03-30T17:51:15.117Z,53.06
2023-03-30T17:53:43.758Z,52.81
2023-03-30T17:56:14.563Z,53.59
2023-03-30T17:58:42.056Z,53.34
2023-03-30T18:01:12.437Z,53.80
2023-03-30T18:03:40.842Z,54.05
2023-03-30T18:06:11.795Z,54.13
2023-03-30T18:08:39.771Z,53.56
2023-03-30T18:11:07.467Z,54.15
2023-03-30T18:13:35.142Z,53.25
2023-03-30T18:16:02.786Z,53.72
2023-03-30T18:18:32.119Z,52.81
2023-03-30T18:21:06.333Z,53.96
2023-03-30T18:23:35.171Z,54.05
2023-03-30T18:26:10.262Z,53.17
2023-03-30T18:28:42.524Z,52.76
2023-03-30T18:31:10.370Z,51.93
2023-03-30T18:33:39.438Z,51.17
2023-03-30T18:36:13.270Z,51.27
2023-03-30T18:38:41.379Z,50.69
2023-03-30T18:41:13.301Z,50.49
2023-03-30T18:43:40.741Z,50.55
2023-03-30T18:46:12.773Z,49.80
2023-03-30T18:48:40.465Z,49.96
2023-03-30T18:51:11.940Z,50.21
2023-03-30T18:53:39.562Z,49.91
2023-03-30T18:56:07.483Z,50.06
2023-03-30T18:58:42.425Z,49.12
2023-03-30T19:01:12.963Z,50.09
2023-03-30T19:03:40.756Z,49.63
2023-03-30T19:06:24.547Z,49.96
2023-03-30T19:08:52.072Z,49.15
2023-03-30T19:11:24.456Z,48.92
2023-03-30T19:13:52.564Z,49.06
2023-03-30T19:16:21.111Z,50.32
2023-03-30T19:18:49.598Z,49.71
2023-03-30T19:21:18.203Z,49.28
2023-03-30T19:23:45.870Z,49.51
2023-03-30T19:26:13.392Z,49.85
2023-03-30T19:28:40.867Z,49.39
2023-03-30T19:31:15.678Z,49.37
2023-03-30T19:33:44.775Z,49.49
2023-03-30T19:36:12.385Z,49.31
2023-03-30T19:38:41.814Z,49.40
2023-03-30T19:41:09.446Z,49.97
2023-03-30T19:43:36.872Z,49.69
2023-03-30T19:46:05.123Z,49.78
2023-03-30T19:48:32.591Z,50.03
2023-03-30T19:50:59.967Z,49.81
2023-03-30T19:53:27.381Z,49.84
2023-03-30T19:55:54.914Z,50.63
2023-03-30T19:58:22.298Z,50.57
2023-03-30T20:00:51.249Z,50.31
2023-03-30T20:03:18.739Z,50.24
2023-03-30T20:05:50.780Z,50.10
2023-03-30T20:08:24.521Z,50.17
2023-03-30T20:10:53.380Z,50.52
2023-03-30T20:13:22.249Z,50.63
2023-03-30T20:15:55.152Z,50.67
2023-03-30T20:18:23.763Z,50.34
2023-03-30T20:20:51.436Z,51.00
2023-03-30T20:23:18.819Z,51.40
2023-03-30T20:25:49.482Z,51.74
2023-03-30T20:28:17.958Z,52.40
2023-03-30T20:30:45.625Z,52.30
2023-03-30T20:33:13.478Z,52.53
2023-03-30T20:35:41.077Z,53.07
2023-03-30T20:38:08.677Z,53.07
2023-03-30T20:40:36.211Z,52.64
2023-03-30T20:43:03.827Z,52.12
2023-03-30T20:45:32.272Z,52.66
2023-03-30T20:48:06.293Z,52.53
2023-03-30T20:50:35.073Z,52.43
2023-03-30T20:53:02.694Z,52.53
2023-03-30T20:55:30.069Z,52.65
2023-03-30T20:57:57.508Z,52.77
2023-03-30T21:00:25.059Z,52.94
2023-03-30T21:02:52.622Z,52.61
2023-03-30T21:05:20.133Z,52.69
2023-03-30T21:07:48.600Z,52.58
2023-03-30T21:10:16.601Z,52.97
2023-03-30T21:12:44.089Z,52.59
2023-03-30T21:15:12.114Z,52.59
2023-03-30T21:17:39.569Z,52.93
2023-03-30T21:20:09.402Z,53.54
2023-03-30T21:22:37.037Z,53.46
2023-03-30T21:25:04.947Z,52.91
2023-03-30T21:27:32.334Z,52.66
2023-03-30T21:29:59.722Z,53.98
2023-03-30T21:32:28.660Z,52.97
2023-03-30T21:34:57.546Z,53.76
2023-03-30T21:37:25.003Z,54.09
2023-03-30T21:39:52.744Z,53.51
2023-03-30T21:42:20.124Z,54.68
2023-03-30T21:44:47.521Z,54.08
2023-03-30T21:47:16.760Z,54.17
2023-03-30T21:49:44.188Z,54.24
2023-03-30T21:52:11.921Z,54.35
2023-03-30T21:54:39.525Z,54.94
2023-03-30T21:57:07.023Z,54.58
2023-03-30T21:59:34.614Z,54.54
2023-03-30T22:02:02.066Z,54.68
2023-03-30T22:04:29.456Z,54.17
2023-03-30T22:06:57.313Z,54.20
2023-03-30T22:09:24.751Z,54.58
2023-03-30T22:11:54.156Z,54.75
2023-03-30T22:14:22.792Z,54.79
2023-03-30T22:16:50.316Z,54.73
2023-03-30T22:19:19.098Z,55.23
2023-03-30T22:21:46.584Z,55.14
2023-03-30T22:24:13.968Z,55.17
2023-03-30T22:26:41.863Z,55.95
2023-03-30T22:29:09.308Z,55.45
2023-03-30T22:31:36.723Z,55.36
2023-03-30T22:34:04.688Z,55.52
2023-03-30T22:36:32.313Z,55.28
2023-03-30T22:39:02.529Z,56.12
2023-03-30T22:41:30.194Z,55.47
2023-03-30T22:43:59.037Z,55.55
2023-03-30T22:46:28.063Z,55.52
2023-03-30T22:48:56.237Z,56.09
2023-03-30T22:51:28.484Z,55.42
2023-03-30T22:53:59.474Z,55.25
2023-03-30T22:56:29.671Z,55.76
2023-03-30T22:58:59.979Z,54.88
2023-03-30T23:01:29.257Z,54.47
2023-03-30T23:03:59.704Z,55.97
2023-03-30T23:06:27.585Z,55.20
2023-03-30T23:08:55.098Z,54.00
2023-03-30T23:11:22.564Z,54.06
2023-03-30T23:13:50.099Z,54.49
2023-03-30T23:16:18.046Z,54.81
2023-03-30T23:18:45.505Z,53.28
2023-03-30T23:21:14.151Z,53.83
2023-03-30T23:23:41.971Z,53.75
2023-03-30T23:26:11.599Z,53.96
2023-03-30T23:28:42.783Z,53.83
2023-03-30T23:31:16.643Z,54.75
2023-03-30T23:33:44.741Z,53.87
2023-03-30T23:36:19.382Z,54.13
2023-03-30T23:38:47.467Z,55.29
2023-03-30T23:41:19.566Z,55.18
2023-03-30T23:43:47.957Z,56.22
2023-03-30T23:46:16.130Z,59.27
2023-03-30T23:48:43.757Z,64.85
2023-03-30T23:51:12.390Z,87.89
2023-03-30T23:53:40.431Z,100.00
2023-03-30T23:56:13.948Z,100.00
2023-03-30T23:58:41.674Z,100.00
